Time;durP1;ratioP1;P1;durP2;ratioP2;P2;SDS_P1;SDS_P2;PMS_P1;PMS_P2;Temp;Humidity;BMP_temperature;BMP_pressure;BME280_temperature;BME280_humidity;BME280_pressure;Samples;Min_cycle;Max_cycle;Signal;HPM_P1;HPM_P2
2022/07/20 00:01:03;;;;;;;;;;;19.90;99.90;;;;;;5073714;28;19915;-80
2022/07/20 00:03:29;;;;;;;;;;;20.00;99.90;;;;;;5073276;28;19908;-78
2022/07/20 00:05:54;;;;;;;;;;;20.10;99.90;;;;;;5073653;28;20381;-78
2022/07/20 00:11:22;;;;;;;;;;;20.20;99.90;;;;;;5042245;28;19920;-79
2022/07/20 00:13:53;;;;;;;;;;;20.30;99.90;;;;;;5073701;28;19999;-80
2022/07/20 00:16:19;;;;;;;;;;;20.40;99.90;;;;;;5073300;28;19909;-79
2022/07/20 00:18:45;;;;;;;;;;;20.20;99.90;;;;;;5073506;28;19916;-80
2022/07/20 00:21:10;;;;;;;;;;;20.40;99.90;;;;;;5074325;28;19908;-79
2022/07/20 00:23:36;;;;;;;;;;;20.40;99.90;;;;;;5077049;28;19912;-78
2022/07/20 00:26:02;;;;;;;;;;;20.50;99.90;;;;;;5077249;28;19908;-81
2022/07/20 00:28:27;;;;;;;;;;;20.40;99.90;;;;;;5077237;28;19908;-78
2022/07/20 00:30:53;;;;;;;;;;;20.30;99.90;;;;;;5077165;28;19912;-78
2022/07/20 00:33:18;;;;;;;;;;;20.40;99.90;;;;;;5076735;28;20009;-81
2022/07/20 00:35:44;;;;;;;;;;;20.50;99.90;;;;;;5077055;28;19916;-77
2022/07/20 00:38:10;;;;;;;;;;;20.50;99.90;;;;;;5077012;28;19908;-80
2022/07/20 00:40:35;;;;;;;;;;;20.50;99.90;;;;;;5076951;28;20331;-78
2022/07/20 00:43:01;;;;;;;;;;;20.50;99.90;;;;;;5076678;28;19995;-79
2022/07/20 00:45:26;;;;;;;;;;;20.60;99.90;;;;;;5076845;28;19920;-81
2022/07/20 00:47:52;;;;;;;;;;;20.50;99.90;;;;;;5076875;28;20265;-78
2022/07/20 00:50:17;;;;;;;;;;;20.50;99.90;;;;;;5076744;28;19916;-78
2022/07/20 00:52:43;;;;;;;;;;;20.60;99.90;;;;;;5082520;28;20011;-78
2022/07/20 00:55:09;;;;;;;;;;;20.50;99.90;;;;;;5096709;28;19935;-78
2022/07/20 00:57:35;;;;;;;;;;;20.60;99.90;;;;;;5097099;28;19954;-80
2022/07/20 01:00:00;;;;;;;;;;;20.50;99.90;;;;;;5097136;28;19915;-80
2022/07/20 01:02:26;;;;;;;;;;;20.60;99.90;;;;;;5096546;28;20403;-80
2022/07/20 01:04:52;;;;;;;;;;;20.60;99.90;;;;;;5096710;28;19947;-79
2022/07/20 01:07:17;;;;;;;;;;;20.40;99.90;;;;;;5096786;28;19908;-79
2022/07/20 01:09:44;;;;;;;;;;;20.60;99.90;;;;;;5096563;28;20293;-80
2022/07/20 01:12:10;;;;;;;;;;;20.60;99.90;;;;;;5096232;28;19916;-77
2022/07/20 01:14:36;;;;;;;;;;;20.70;99.90;;;;;;5078803;28;20330;-78
2022/07/20 01:17:01;;;;;;;;;;;20.70;99.90;;;;;;5096595;28;19908;-80
2022/07/20 01:19:27;;;;;;;;;;;20.70;99.90;;;;;;5096568;28;20283;-79
2022/07/20 01:21:53;;;;;;;;;;;20.70;99.90;;;;;;5096545;28;19908;-80
2022/07/20 01:24:18;;;;;;;;;;;20.70;99.90;;;;;;5078066;28;19908;-79
2022/07/20 01:26:45;;;;;;;;;;;20.70;99.90;;;;;;5096333;28;20391;-78
2022/07/20 01:29:11;;;;;;;;;;;20.80;99.90;;;;;;5096494;28;20322;-80
2022/07/20 01:31:37;;;;;;;;;;;20.70;99.90;;;;;;5096087;28;19958;-81
2022/07/20 01:34:03;;;;;;;;;;;20.80;99.90;;;;;;5095223;28;19908;-80
2022/07/20 01:36:29;;;;;;;;;;;20.70;99.90;;;;;;5096790;28;19940;-81
2022/07/20 01:38:54;;;;;;;;;;;20.80;99.90;;;;;;5096371;28;19973;-80
2022/07/20 01:41:20;;;;;;;;;;;20.80;99.90;;;;;;5095886;28;19920;-77
2022/07/20 01:43:46;;;;;;;;;;;20.80;99.90;;;;;;5095555;28;19930;-78
2022/07/20 01:46:11;;;;;;;;;;;20.80;99.90;;;;;;5096544;28;19909;-80
2022/07/20 01:48:37;;;;;;;;;;;20.70;99.90;;;;;;5095799;28;19908;-80
2022/07/20 01:51:02;;;;;;;;;;;20.70;99.90;;;;;;5078120;28;19915;-79
2022/07/20 01:53:28;;;;;;;;;;;20.80;99.90;;;;;;5095309;28;19912;-78
2022/07/20 01:55:54;;;;;;;;;;;20.50;99.90;;;;;;5095913;28;19912;-80
2022/07/20 01:58:20;;;;;;;;;;;20.00;99.90;;;;;;5095814;28;19915;-79
2022/07/20 02:00:46;;;;;;;;;;;19.80;99.90;;;;;;5095668;28;19912;-79
2022/07/20 02:03:12;;;;;;;;;;;19.80;99.90;;;;;;5095569;28;20288;-78
2022/07/20 02:05:37;;;;;;;;;;;19.80;99.90;;;;;;5095397;28;19931;-79
2022/07/20 02:08:03;;;;;;;;;;;19.90;99.90;;;;;;5095691;28;19908;-77
2022/07/20 02:10:28;;;;;;;;;;;20.20;99.90;;;;;;5095636;28;19974;-80
2022/07/20 02:12:54;;;;;;;;;;;19.80;99.90;;;;;;5077013;28;19912;-80
2022/07/20 02:18:05;;;;;;;;;;;20.10;99.90;;;;;;5095182;28;20423;-79
2022/07/20 02:20:30;;;;;;;;;;;20.20;99.90;;;;;;5095412;28;19909;-77
2022/07/20 02:22:56;;;;;;;;;;;20.10;99.90;;;;;;5076793;28;19914;-81
2022/07/20 02:25:22;;;;;;;;;;;20.10;99.90;;;;;;5095334;28;19947;-80
2022/07/20 02:27:47;;;;;;;;;;;20.20;99.90;;;;;;5094998;28;20371;-78
2022/07/20 02:30:13;;;;;;;;;;;20.50;99.90;;;;;;5094984;28;19908;-78
2022/07/20 02:32:38;;;;;;;;;;;20.60;99.90;;;;;;5094592;28;19918;-80
2022/07/20 02:35:04;;;;;;;;;;;20.80;99.90;;;;;;5094888;28;19908;-80
2022/07/20 02:37:30;;;;;;;;;;;21.00;99.90;;;;;;5095077;28;20002;-79
2022/07/20 02:39:55;;;;;;;;;;;21.00;99.90;;;;;;5094752;28;19908;-78
2022/07/20 02:42:21;;;;;;;;;;;21.10;99.90;;;;;;5094408;28;19958;-78
2022/07/20 02:44:46;;;;;;;;;;;21.20;99.90;;;;;;5093648;28;19912;-82
2022/07/20 02:47:12;;;;;;;;;;;21.30;99.90;;;;;;5094916;28;19915;-77
2022/07/20 02:49:37;;;;;;;;;;;21.30;99.90;;;;;;5094852;28;20053;-81
2022/07/20 02:52:03;;;;;;;;;;;21.30;99.90;;;;;;5094644;28;19912;-78
2022/07/20 02:54:29;;;;;;;;;;;21.40;99.90;;;;;;5094409;28;19915;-81
2022/07/20 02:56:54;;;;;;;;;;;21.30;99.90;;;;;;5094429;28;20139;-78
2022/07/20 02:59:20;;;;;;;;;;;21.20;99.90;;;;;;5094598;28;19908;-79
2022/07/20 03:01:45;;;;;;;;;;;21.30;99.90;;;;;;5094399;28;20326;-78
2022/07/20 03:04:11;;;;;;;;;;;21.30;99.90;;;;;;5093956;28;19946;-82
2022/07/20 03:06:37;;;;;;;;;;;21.00;99.90;;;;;;5094304;28;19938;-79
2022/07/20 03:09:02;;;;;;;;;;;20.80;99.90;;;;;;5094168;28;20351;-81
2022/07/20 03:11:28;;;;;;;;;;;20.70;99.90;;;;;;5094430;28;20291;-79
2022/07/20 03:13:53;;;;;;;;;;;20.70;99.90;;;;;;5094350;28;20372;-81
2022/07/20 03:16:19;;;;;;;;;;;21.00;99.90;;;;;;5094086;28;19959;-79
2022/07/20 03:18:45;;;;;;;;;;;21.10;99.90;;;;;;5094200;28;19957;-78
2022/07/20 03:21:10;;;;;;;;;;;21.10;99.90;;;;;;5094219;28;19915;-82
2022/07/20 03:23:36;;;;;;;;;;;21.00;99.90;;;;;;5093776;28;19949;-77
2022/07/20 03:26:01;;;;;;;;;;;21.10;99.90;;;;;;5093982;28;19908;-81
2022/07/20 03:28:27;;;;;;;;;;;21.00;99.90;;;;;;5093905;28;19908;-81
2022/07/20 03:30:53;;;;;;;;;;;20.80;99.90;;;;;;5094131;28;20399;-81
2022/07/20 03:33:18;;;;;;;;;;;20.80;99.90;;;;;;5093513;28;20364;-78
2022/07/20 03:35:44;;;;;;;;;;;21.00;99.90;;;;;;5094191;28;19908;-82
2022/07/20 03:38:09;;;;;;;;;;;21.00;99.90;;;;;;5093872;28;20429;-79
2022/07/20 03:40:35;;;;;;;;;;;20.80;99.90;;;;;;5093835;28;19908;-78
2022/07/20 03:43:00;;;;;;;;;;;20.60;99.90;;;;;;5093580;28;20370;-78
2022/07/20 03:45:26;;;;;;;;;;;20.50;99.90;;;;;;5093812;28;19912;-80
2022/07/20 03:47:52;;;;;;;;;;;20.40;99.90;;;;;;5093746;28;20007;-79
2022/07/20 03:50:17;;;;;;;;;;;20.20;99.90;;;;;;5093824;28;20006;-81
2022/07/20 03:52:43;;;;;;;;;;;20.20;99.90;;;;;;5093444;28;20307;-78
2022/07/20 03:55:08;;;;;;;;;;;20.20;99.90;;;;;;5093683;28;19955;-77
2022/07/20 03:57:34;;;;;;;;;;;20.30;99.90;;;;;;5099704;28;19908;-82
2022/07/20 04:00:00;;;;;;;;;;;20.60;99.90;;;;;;5100449;28;19912;-80
2022/07/20 04:02:25;;;;;;;;;;;20.50;99.90;;;;;;5100517;28;19914;-79
2022/07/20 04:04:51;;;;;;;;;;;20.50;99.90;;;;;;5100065;28;20380;-80
2022/07/20 04:07:16;;;;;;;;;;;20.60;99.90;;;;;;5100209;28;19938;-79
2022/07/20 04:09:46;;;;;;;;;;;20.70;99.90;;;;;;5082194;28;19909;-78
2022/07/20 04:12:16;;;;;;;;;;;20.80;99.90;;;;;;5100114;28;19916;-77
2022/07/20 04:14:42;;;;;;;;;;;20.80;99.90;;;;;;5100585;28;20410;-79
2022/07/20 04:17:08;;;;;;;;;;;20.70;99.90;;;;;;5100116;28;19908;-79
2022/07/20 04:19:35;;;;;;;;;;;20.80;99.90;;;;;;5100328;28;20398;-77
2022/07/20 04:22:01;;;;;;;;;;;20.70;99.90;;;;;;5100328;28;19914;-78
2022/07/20 04:24:26;;;;;;;;;;;20.40;99.90;;;;;;5099688;28;19912;-78
2022/07/20 04:26:52;;;;;;;;;;;20.20;99.90;;;;;;5100140;28;19940;-78
2022/07/20 04:29:18;;;;;;;;;;;20.20;99.90;;;;;;5099860;28;20352;-79
2022/07/20 04:31:44;;;;;;;;;;;20.40;99.90;;;;;;5100088;28;20384;-77
2022/07/20 04:34:09;;;;;;;;;;;20.50;99.90;;;;;;5099861;28;19957;-82
2022/07/20 04:36:37;;;;;;;;;;;20.30;99.90;;;;;;5100047;28;19916;-81
2022/07/20 04:39:03;;;;;;;;;;;20.10;99.90;;;;;;5100066;28;19908;-81
2022/07/20 04:41:28;;;;;;;;;;;20.20;99.90;;;;;;5099713;28;19927;-78
2022/07/20 04:43:54;;;;;;;;;;;20.30;99.90;;;;;;5099652;28;19994;-78
2022/07/20 04:46:20;;;;;;;;;;;20.20;99.90;;;;;;5081878;28;19908;-80
2022/07/20 04:48:45;;;;;;;;;;;20.30;99.90;;;;;;5099947;28;20002;-80
2022/07/20 04:51:11;;;;;;;;;;;20.20;99.90;;;;;;5100014;28;19922;-79
2022/07/20 04:53:37;;;;;;;;;;;19.90;99.90;;;;;;5100326;28;20292;-77
2022/07/20 04:56:02;;;;;;;;;;;19.60;99.90;;;;;;5100779;28;20361;-80
2022/07/20 04:58:31;;;;;;;;;;;19.40;99.90;;;;;;5100695;28;19908;-80
2022/07/20 05:00:57;;;;;;;;;;;19.30;99.90;;;;;;5100134;28;19916;-79
2022/07/20 05:03:22;;;;;;;;;;;19.50;99.90;;;;;;5099522;28;19908;-77
2022/07/20 05:05:48;;;;;;;;;;;19.90;99.90;;;;;;5099941;28;19912;-81
2022/07/20 05:08:13;;;;;;;;;;;19.90;99.90;;;;;;5097048;28;19915;-79
2022/07/20 05:10:39;;;;;;;;;;;19.70;99.90;;;;;;5096653;28;19908;-81
2022/07/20 05:13:05;;;;;;;;;;;19.80;99.90;;;;;;5095473;28;20390;-78
2022/07/20 05:15:30;;;;;;;;;;;19.70;99.90;;;;;;5076879;28;19995;-79
2022/07/20 05:17:56;;;;;;;;;;;19.70;99.90;;;;;;5076395;28;20381;-80
2022/07/20 05:20:21;;;;;;;;;;;19.70;99.90;;;;;;5076307;28;19943;-80
2022/07/20 05:22:47;;;;;;;;;;;19.60;99.90;;;;;;5076413;28;19908;-79
2022/07/20 05:25:13;;;;;;;;;;;19.50;99.90;;;;;;5075738;28;19954;-78
2022/07/20 05:27:38;;;;;;;;;;;19.60;99.90;;;;;;5077121;28;20392;-79
2022/07/20 05:30:04;;;;;;;;;;;19.70;99.90;;;;;;5076248;28;20334;-81
2022/07/20 05:32:30;;;;;;;;;;;19.90;99.90;;;;;;5075904;28;20330;-78
2022/07/20 05:34:55;;;;;;;;;;;19.90;99.90;;;;;;5091594;28;19912;-80
2022/07/20 05:37:21;;;;;;;;;;;19.90;99.90;;;;;;5096143;28;20329;-78
2022/07/20 05:39:47;;;;;;;;;;;20.10;99.90;;;;;;5096073;28;19912;-77
2022/07/20 05:42:13;;;;;;;;;;;20.20;99.90;;;;;;5096093;28;19924;-81
2022/07/20 05:44:39;;;;;;;;;;;20.10;99.90;;;;;;5095652;28;19908;-81
2022/07/20 05:47:06;;;;;;;;;;;20.20;99.90;;;;;;5095967;28;20501;-78
2022/07/20 05:49:32;;;;;;;;;;;20.40;99.90;;;;;;5095833;28;19915;-79
2022/07/20 05:51:58;;;;;;;;;;;20.30;99.90;;;;;;5095720;28;19919;-78
2022/07/20 05:54:24;;;;;;;;;;;20.30;99.90;;;;;;5077244;28;19908;-78
2022/07/20 05:56:50;;;;;;;;;;;20.30;99.90;;;;;;5095604;28;19938;-78
2022/07/20 05:59:15;;;;;;;;;;;20.30;99.90;;;;;;5095619;28;19915;-78
2022/07/20 06:01:43;;;;;;;;;;;20.40;99.90;;;;;;5084167;28;19908;-78
2022/07/20 06:04:09;;;;;;;;;;;20.40;99.90;;;;;;5075107;28;19940;-79
2022/07/20 06:06:35;;;;;;;;;;;20.40;99.90;;;;;;5075150;28;19916;-80
2022/07/20 06:09:01;;;;;;;;;;;20.30;99.90;;;;;;5075203;28;20392;-78
2022/07/20 06:11:26;;;;;;;;;;;20.30;99.90;;;;;;5057081;28;19912;-78
2022/07/20 06:13:52;;;;;;;;;;;20.50;99.90;;;;;;5075370;28;19971;-81
2022/07/20 06:16:17;;;;;;;;;;;20.60;99.90;;;;;;5057070;28;19991;-78
2022/07/20 06:18:43;;;;;;;;;;;20.60;99.90;;;;;;5074829;28;19908;-80
2022/07/20 06:21:08;;;;;;;;;;;20.80;99.90;;;;;;5074875;28;19908;-78
2022/07/20 06:23:34;;;;;;;;;;;20.80;99.90;;;;;;5074543;28;20300;-78
2022/07/20 06:25:59;;;;;;;;;;;20.70;99.90;;;;;;5056917;28;19908;-81
2022/07/20 06:28:25;;;;;;;;;;;20.90;99.90;;;;;;5074646;28;19915;-80
2022/07/20 06:30:51;;;;;;;;;;;21.20;99.90;;;;;;5074926;28;19931;-80
2022/07/20 06:33:16;;;;;;;;;;;21.40;99.90;;;;;;5074525;28;19924;-80
2022/07/20 06:35:42;;;;;;;;;;;21.40;99.90;;;;;;5074534;28;20319;-80
2022/07/20 06:38:07;;;;;;;;;;;21.40;99.90;;;;;;5074617;28;20430;-79
2022/07/20 06:40:33;;;;;;;;;;;21.40;99.90;;;;;;5074380;28;19914;-78
2022/07/20 06:42:59;;;;;;;;;;;21.30;99.90;;;;;;5074236;28;20416;-82
2022/07/20 06:45:24;;;;;;;;;;;21.10;99.90;;;;;;5073929;28;19908;-79
2022/07/20 06:47:50;;;;;;;;;;;21.10;99.90;;;;;;5074822;28;19938;-78
2022/07/20 06:50:15;;;;;;;;;;;21.10;99.90;;;;;;5074774;28;19931;-80
2022/07/20 06:52:41;;;;;;;;;;;21.30;99.90;;;;;;5074717;28;20381;-80
2022/07/20 06:55:07;;;;;;;;;;;21.50;99.90;;;;;;5073896;28;19919;-82
2022/07/20 06:57:32;;;;;;;;;;;21.50;99.90;;;;;;5074417;28;19909;-79
2022/07/20 06:59:58;;;;;;;;;;;21.50;99.90;;;;;;5074825;28;19919;-80
2022/07/20 07:02:23;;;;;;;;;;;21.80;99.90;;;;;;5075178;28;19958;-79
2022/07/20 07:04:49;;;;;;;;;;;22.10;99.90;;;;;;5074514;28;20288;-82
2022/07/20 07:07:15;;;;;;;;;;;22.20;99.90;;;;;;5074465;28;19908;-78
2022/07/20 07:09:40;;;;;;;;;;;22.00;99.90;;;;;;5056524;28;19908;-80
2022/07/20 07:12:06;;;;;;;;;;;21.80;99.90;;;;;;5074482;28;20361;-81
2022/07/20 07:14:32;;;;;;;;;;;21.90;99.90;;;;;;5074641;28;19999;-79
2022/07/20 07:16:57;;;;;;;;;;;21.90;99.90;;;;;;5074587;28;20277;-79
2022/07/20 07:19:23;;;;;;;;;;;22.10;99.90;;;;;;5075097;28;20273;-80
2022/07/20 07:21:48;;;;;;;;;;;22.00;99.90;;;;;;5074707;28;19912;-81
2022/07/20 07:24:14;;;;;;;;;;;22.40;99.90;;;;;;5081291;28;19909;-80
2022/07/20 07:26:39;;;;;;;;;;;22.80;99.90;;;;;;5094916;28;19912;-78
2022/07/20 07:29:05;;;;;;;;;;;23.30;99.90;;;;;;5094248;28;19913;-78
2022/07/20 07:31:31;;;;;;;;;;;23.70;99.90;;;;;;5093817;28;19908;-79
2022/07/20 07:33:57;;;;;;;;;;;23.70;99.90;;;;;;5094128;28;19951;-80
2022/07/20 07:36:22;;;;;;;;;;;24.00;99.90;;;;;;5094491;28;19995;-80
2022/07/20 07:38:48;;;;;;;;;;;23.70;99.90;;;;;;5094030;28;19908;-81
2022/07/20 07:41:14;;;;;;;;;;;23.40;99.90;;;;;;5093557;28;19970;-80
2022/07/20 07:43:39;;;;;;;;;;;23.50;99.90;;;;;;5093858;28;19908;-81
2022/07/20 07:46:05;;;;;;;;;;;23.10;99.90;;;;;;5093664;28;19912;-79
2022/07/20 07:48:31;;;;;;;;;;;22.70;99.90;;;;;;5093969;28;19943;-80
2022/07/20 07:50:56;;;;;;;;;;;22.40;99.90;;;;;;5075655;28;19912;-79
2022/07/20 07:53:22;;;;;;;;;;;22.40;99.90;;;;;;5093694;28;19912;-78
2022/07/20 07:55:48;;;;;;;;;;;22.40;99.90;;;;;;5093408;28;19919;-81
2022/07/20 07:58:13;;;;;;;;;;;22.30;99.90;;;;;;5093707;28;19916;-79
2022/07/20 08:00:40;;;;;;;;;;;22.30;99.90;;;;;;5094065;28;19908;-79
2022/07/20 08:03:06;;;;;;;;;;;22.80;99.90;;;;;;5093722;28;19915;-81
2022/07/20 08:05:32;;;;;;;;;;;24.40;99.90;;;;;;5092902;28;19916;-81
2022/07/20 08:07:58;;;;;;;;;;;26.20;99.90;;;;;;5093370;28;20280;-81
2022/07/20 08:10:23;;;;;;;;;;;26.70;99.90;;;;;;5093366;28;19915;-78
2022/07/20 08:12:49;;;;;;;;;;;25.10;99.90;;;;;;5093459;28;19913;-81
2022/07/20 08:15:15;;;;;;;;;;;24.70;99.90;;;;;;5093362;28;20000;-82
2022/07/20 08:17:44;;;;;;;;;;;25.60;99.90;;;;;;5093403;28;19908;-81
2022/07/20 08:20:10;;;;;;;;;;;26.30;99.90;;;;;;5093081;28;19930;-80
2022/07/20 08:22:36;;;;;;;;;;;27.50;99.80;;;;;;5093102;28;19909;-79
2022/07/20 08:25:01;;;;;;;;;;;28.30;97.20;;;;;;5081559;28;20292;-80
2022/07/20 08:27:27;;;;;;;;;;;27.80;97.20;;;;;;5054781;28;19913;-79
2022/07/20 08:29:58;;;;;;;;;;;27.40;97.60;;;;;;5073043;28;19916;-80
2022/07/20 08:32:24;;;;;;;;;;;26.70;99.90;;;;;;5073229;28;19913;-78
2022/07/20 08:34:51;;;;;;;;;;;26.00;99.90;;;;;;5072773;28;19915;-80
2022/07/20 08:37:17;;;;;;;;;;;25.70;99.90;;;;;;5073080;28;20047;-81
2022/07/20 08:39:42;;;;;;;;;;;25.50;99.90;;;;;;5073094;28;19958;-78
2022/07/20 08:42:08;;;;;;;;;;;25.70;99.90;;;;;;5073091;28;19924;-81
2022/07/20 08:44:34;;;;;;;;;;;25.40;99.90;;;;;;5069457;28;19932;-82
2022/07/20 08:47:00;;;;;;;;;;;25.80;99.90;;;;;;5056897;28;19955;-81
2022/07/20 08:49:26;;;;;;;;;;;25.90;99.90;;;;;;5056530;28;20356;-79
2022/07/20 08:51:52;;;;;;;;;;;26.00;99.90;;;;;;5056509;28;19964;-82
2022/07/20 08:54:18;;;;;;;;;;;26.20;99.90;;;;;;5056183;28;19909;-83
2022/07/20 08:56:45;;;;;;;;;;;26.70;99.70;;;;;;5056346;28;19909;-82
2022/07/20 08:59:10;;;;;;;;;;;27.80;95.00;;;;;;5054910;28;19908;-82
2022/07/20 09:01:56;;;;;;;;;;;28.40;92.90;;;;;;5056263;28;19959;-80
2022/07/20 09:04:21;;;;;;;;;;;28.20;92.40;;;;;;5055921;28;19909;-80
2022/07/20 09:06:47;;;;;;;;;;;26.50;95.40;;;;;;5056462;28;19965;-81
2022/07/20 09:09:13;;;;;;;;;;;25.90;97.30;;;;;;5056672;28;19908;-83
2022/07/20 09:11:39;;;;;;;;;;;26.60;96.40;;;;;;5056069;28;19916;-83
2022/07/20 09:14:05;;;;;;;;;;;27.70;94.00;;;;;;5055780;28;20043;-81
2022/07/20 09:16:32;;;;;;;;;;;28.30;92.20;;;;;;5056223;28;20408;-83
2022/07/20 09:18:57;;;;;;;;;;;28.70;90.00;;;;;;5056034;28;20051;-82
2022/07/20 09:21:30;;;;;;;;;;;29.50;86.90;;;;;;5055879;28;20410;-82
2022/07/20 09:23:56;;;;;;;;;;;30.10;85.50;;;;;;5055752;28;19909;-83
2022/07/20 09:26:22;;;;;;;;;;;29.00;85.60;;;;;;5055739;28;19909;-80
2022/07/20 09:28:52;;;;;;;;;;;28.50;87.40;;;;;;5055566;28;19962;-81
2022/07/20 09:31:19;;;;;;;;;;;27.50;89.10;;;;;;5056167;28;19913;-79
2022/07/20 09:33:48;;;;;;;;;;;26.80;91.00;;;;;;5056023;28;20351;-81
2022/07/20 09:36:14;;;;;;;;;;;26.70;92.90;;;;;;5055482;28;19952;-79
2022/07/20 09:38:41;;;;;;;;;;;27.60;91.80;;;;;;5055672;28;19916;-80
2022/07/20 09:41:26;;;;;;;;;;;29.20;87.00;;;;;;5055316;28;20012;-81
2022/07/20 09:43:52;;;;;;;;;;;28.70;85.50;;;;;;5056431;28;19909;-78
2022/07/20 09:46:22;;;;;;;;;;;27.80;88.30;;;;;;5074919;28;20379;-80
2022/07/20 09:48:49;;;;;;;;;;;27.40;86.50;;;;;;5075941;28;19909;-81
2022/07/20 09:51:24;;;;;;;;;;;26.80;87.50;;;;;;5076133;28;19908;-83
2022/07/20 09:53:51;;;;;;;;;;;26.30;89.00;;;;;;5075782;28;19912;-79
2022/07/20 09:56:18;;;;;;;;;;;26.30;90.00;;;;;;5075278;28;19951;-80
2022/07/20 09:58:45;;;;;;;;;;;27.20;86.90;;;;;;5075760;28;19954;-81
2022/07/20 10:01:12;;;;;;;;;;;28.00;83.50;;;;;;5075368;28;20280;-81
2022/07/20 10:03:37;;;;;;;;;;;29.10;79.00;;;;;;5074935;28;19916;-84
2022/07/20 10:06:03;;;;;;;;;;;30.50;75.10;;;;;;5058222;28;19932;-80
2022/07/20 10:08:29;;;;;;;;;;;32.30;71.00;;;;;;5054887;28;20368;-83
2022/07/20 10:10:56;;;;;;;;;;;32.10;69.00;;;;;;5054868;28;19963;-81
2022/07/20 10:13:21;;;;;;;;;;;30.90;70.20;;;;;;5054793;28;20030;-82
2022/07/20 10:16:00;;;;;;;;;;;31.30;69.10;;;;;;5054912;28;19999;-82
2022/07/20 10:18:27;;;;;;;;;;;31.20;68.00;;;;;;5054737;28;20384;-83
2022/07/20 10:20:52;;;;;;;;;;;32.00;66.10;;;;;;5036796;28;20007;-80
2022/07/20 10:23:25;;;;;;;;;;;32.40;64.70;;;;;;5054708;28;19958;-82
2022/07/20 10:25:51;;;;;;;;;;;33.60;61.80;;;;;;5054095;28;19995;-82
2022/07/20 10:28:22;;;;;;;;;;;33.20;61.50;;;;;;5054530;28;19952;-81
2022/07/20 10:30:54;;;;;;;;;;;34.30;60.30;;;;;;5054465;28;20329;-83
2022/07/20 10:33:21;;;;;;;;;;;33.40;59.80;;;;;;5054440;28;19913;-82
2022/07/20 10:35:48;;;;;;;;;;;33.40;60.00;;;;;;5053926;28;19913;-82
2022/07/20 10:38:17;;;;;;;;;;;35.60;57.60;;;;;;5054727;28;20007;-82
2022/07/20 10:44:05;;;;;;;;;;;35.50;55.10;;;;;;5054244;28;20427;-82
2022/07/20 10:46:32;;;;;;;;;;;34.70;56.00;;;;;;5053784;28;19909;-80
2022/07/20 10:48:57;;;;;;;;;;;35.00;56.50;;;;;;5054058;28;20003;-82
2022/07/20 10:51:23;;;;;;;;;;;33.00;57.70;;;;;;5054180;28;19952;-80
2022/07/20 10:53:49;;;;;;;;;;;33.70;57.80;;;;;;5053956;28;19912;-82
2022/07/20 10:56:14;;;;;;;;;;;35.10;54.90;;;;;;5053471;28;19908;-80
2022/07/20 10:58:42;;;;;;;;;;;35.70;55.10;;;;;;5053988;28;19940;-81
2022/07/20 11:01:08;;;;;;;;;;;36.60;53.50;;;;;;5053931;28;19912;-83
2022/07/20 11:03:36;;;;;;;;;;;37.20;51.60;;;;;;5053891;28;19958;-82
2022/07/20 11:06:02;;;;;;;;;;;37.70;50.80;;;;;;5052512;28;19909;-83
2022/07/20 11:08:27;;;;;;;;;;;36.80;52.60;;;;;;5053905;28;19959;-81
2022/07/20 11:10:54;;;;;;;;;;;35.90;53.10;;;;;;5053659;28;20365;-81
2022/07/20 11:13:19;;;;;;;;;;;38.10;51.80;;;;;;5053649;28;19912;-84
2022/07/20 11:15:46;;;;;;;;;;;38.70;49.40;;;;;;5053807;28;19909;-82
2022/07/20 11:18:13;;;;;;;;;;;36.90;51.60;;;;;;5035705;28;19915;-82
2022/07/20 11:20:46;;;;;;;;;;;34.70;54.00;;;;;;5053658;28;20284;-82
2022/07/20 11:23:13;;;;;;;;;;;33.50;55.40;;;;;;5053561;28;19909;-80
2022/07/20 11:25:46;;;;;;;;;;;32.60;57.40;;;;;;5053137;28;20426;-82
2022/07/20 11:28:11;;;;;;;;;;;33.30;57.30;;;;;;5053260;28;19958;-81
2022/07/20 11:30:37;;;;;;;;;;;33.30;56.20;;;;;;5053519;28;19917;-84
2022/07/20 11:33:03;;;;;;;;;;;32.50;57.70;;;;;;5053616;28;19948;-81
2022/07/20 11:35:29;;;;;;;;;;;33.20;57.60;;;;;;5052986;28;20288;-80
2022/07/20 11:37:55;;;;;;;;;;;33.20;56.90;;;;;;5053373;28;19908;-81
2022/07/20 11:40:21;;;;;;;;;;;35.40;55.20;;;;;;5053156;28;19908;-82
2022/07/20 11:43:06;;;;;;;;;;;34.50;54.60;;;;;;5052863;28;19925;-82
2022/07/20 11:45:32;;;;;;;;;;;34.00;55.10;;;;;;5052954;28;19909;-80
2022/07/20 11:47:58;;;;;;;;;;;33.10;55.80;;;;;;5053137;28;20400;-82
2022/07/20 11:50:30;;;;;;;;;;;32.40;57.20;;;;;;5053244;28;19908;-80
2022/07/20 11:52:55;;;;;;;;;;;32.20;57.90;;;;;;5053008;28;19927;-81
2022/07/20 11:55:32;;;;;;;;;;;31.90;59.10;;;;;;5052950;28;20000;-82
2022/07/20 11:57:58;;;;;;;;;;;31.60;60.30;;;;;;5053390;28;19913;-80
2022/07/20 12:00:25;;;;;;;;;;;32.80;58.50;;;;;;5053505;28;19966;-83
2022/07/20 12:02:51;;;;;;;;;;;31.90;59.50;;;;;;5053332;28;19909;-80
2022/07/20 12:05:17;;;;;;;;;;;32.10;60.00;;;;;;5052872;28;20372;-81
2022/07/20 12:10:26;;;;;;;;;;;33.70;56.80;;;;;;5052829;28;19916;-81
2022/07/20 12:13:05;;;;;;;;;;;34.80;55.60;;;;;;5034970;28;19912;-80
2022/07/20 12:15:30;;;;;;;;;;;34.10;55.00;;;;;;5053067;28;19909;-82
2022/07/20 12:17:56;;;;;;;;;;;32.70;57.20;;;;;;5055203;28;19916;-80
2022/07/20 12:20:23;;;;;;;;;;;33.60;57.30;;;;;;5057001;28;19913;-82
2022/07/20 12:22:50;;;;;;;;;;;35.50;55.60;;;;;;5057008;28;19999;-83
2022/07/20 12:25:16;;;;;;;;;;;35.80;53.30;;;;;;5056574;28;19915;-83
2022/07/20 12:27:42;;;;;;;;;;;35.20;53.80;;;;;;5056825;28;20295;-83
2022/07/20 12:30:28;;;;;;;;;;;35.40;53.80;;;;;;5056864;28;19913;-81
2022/07/20 12:33:04;;;;;;;;;;;35.60;53.70;;;;;;5056708;28;20388;-82
2022/07/20 12:35:30;;;;;;;;;;;35.10;53.90;;;;;;5056224;28;20284;-81
2022/07/20 12:37:56;;;;;;;;;;;35.20;52.80;;;;;;5056728;28;19916;-81
2022/07/20 12:40:37;;;;;;;;;;;33.40;55.50;;;;;;5056435;28;19909;-81
2022/07/20 12:43:04;;;;;;;;;;;33.70;56.80;;;;;;5055255;28;20297;-83
2022/07/20 12:45:29;;;;;;;;;;;34.90;53.60;;;;;;5056141;28;19916;-83
2022/07/20 12:47:55;;;;;;;;;;;34.60;55.20;;;;;;5056485;28;19909;-84
2022/07/20 12:50:21;;;;;;;;;;;34.10;55.50;;;;;;5056405;28;19988;-83
2022/07/20 12:52:46;;;;;;;;;;;33.60;55.90;;;;;;5054862;28;20313;-81
2022/07/20 12:55:13;;;;;;;;;;;32.90;55.90;;;;;;5056113;28;19916;-82
2022/07/20 12:57:39;;;;;;;;;;;33.00;57.50;;;;;;5056359;28;19909;-81
2022/07/20 13:00:06;;;;;;;;;;;32.80;57.20;;;;;;5055056;28;19916;-79
2022/07/20 13:02:31;;;;;;;;;;;31.80;59.90;;;;;;5056282;28;20204;-80
2022/07/20 13:04:57;;;;;;;;;;;34.00;58.00;;;;;;5057311;28;19913;-81
2022/07/20 13:07:22;;;;;;;;;;;34.40;55.00;;;;;;5076232;28;19909;-81
2022/07/20 13:09:48;;;;;;;;;;;33.40;56.50;;;;;;5075292;28;19909;-81
2022/07/20 13:12:13;;;;;;;;;;;33.00;57.50;;;;;;5075073;28;20257;-82
2022/07/20 13:14:39;;;;;;;;;;;32.80;57.30;;;;;;5076483;28;19908;-83
2022/07/20 13:17:05;;;;;;;;;;;33.30;56.80;;;;;;5076175;28;20000;-80
2022/07/20 13:19:30;;;;;;;;;;;34.40;55.40;;;;;;5074715;28;19916;-83
2022/07/20 13:21:56;;;;;;;;;;;34.80;54.70;;;;;;5076013;28;19916;-81
2022/07/20 13:24:22;;;;;;;;;;;35.40;54.60;;;;;;5075833;28;19958;-83
2022/07/20 13:26:48;;;;;;;;;;;37.10;52.50;;;;;;5073987;28;20005;-82
2022/07/20 13:29:14;;;;;;;;;;;36.40;52.20;;;;;;5074631;28;19908;-81
2022/07/20 13:31:40;;;;;;;;;;;35.70;53.00;;;;;;5075713;28;20418;-81
2022/07/20 13:34:06;;;;;;;;;;;34.60;53.80;;;;;;5075876;28;19951;-84
2022/07/20 13:36:32;;;;;;;;;;;35.40;53.40;;;;;;5075668;28;19919;-81
2022/07/20 13:38:58;;;;;;;;;;;33.90;53.80;;;;;;5075853;28;20296;-81
2022/07/20 13:41:23;;;;;;;;;;;33.70;54.50;;;;;;5081755;28;20449;-82
2022/07/20 13:43:49;;;;;;;;;;;34.10;55.50;;;;;;5095734;28;19908;-82
2022/07/20 13:46:16;;;;;;;;;;;34.60;54.10;;;;;;5095375;28;19954;-79
2022/07/20 13:48:41;;;;;;;;;;;34.30;53.80;;;;;;5095748;28;20284;-82
2022/07/20 13:51:07;;;;;;;;;;;33.60;54.80;;;;;;5095716;28;19918;-82
2022/07/20 13:53:33;;;;;;;;;;;34.20;54.10;;;;;;5095229;28;20345;-82
2022/07/20 13:55:59;;;;;;;;;;;33.70;54.90;;;;;;5095225;28;19912;-80
2022/07/20 13:58:25;;;;;;;;;;;33.00;55.50;;;;;;5095495;28;19931;-83
2022/07/20 14:00:50;;;;;;;;;;;32.70;55.70;;;;;;5095503;28;19965;-81
2022/07/20 14:03:16;;;;;;;;;;;33.10;55.70;;;;;;5095413;28;19943;-81
2022/07/20 14:05:42;;;;;;;;;;;32.80;55.60;;;;;;5094994;28;19908;-81
2022/07/20 14:08:07;;;;;;;;;;;32.50;56.10;;;;;;5095397;28;20416;-80
2022/07/20 14:10:34;;;;;;;;;;;32.50;56.70;;;;;;5095294;28;19908;-80
2022/07/20 14:12:59;;;;;;;;;;;32.20;56.20;;;;;;5077021;28;20306;-82
2022/07/20 14:15:25;;;;;;;;;;;31.70;55.80;;;;;;5095871;28;20512;-80
2022/07/20 14:17:51;;;;;;;;;;;31.10;57.00;;;;;;5095444;28;19952;-80
2022/07/20 14:20:16;;;;;;;;;;;30.70;57.70;;;;;;5095274;28;20368;-80
2022/07/20 14:22:42;;;;;;;;;;;30.50;58.20;;;;;;5095082;28;19950;-82